• Join FlightAware (Why Join?)
  • Login
  • US Flag 
Rudolph Flight #1: Arrived! 
06:18PM EST


 

Airport Tracker/Info


-or-


 

Live Flight TrackerFlight Track Log ✈ PLT2 ✈ 24-Oct-2013 ✈ KCAE - KINT

Flight Track Log - Related Links

Times and Time Zones

All times are in EDT time to prevent confusion due to time zone crossing. See the PLT2 flight status page for this flight to view local times or setup timezone preferences in your user account.

Time Position Orientation Groundspeed Altitude Reporting Facility
EDT Latitude Longitude Course Direction KTS MPH feet Rate Location/Type
09:52AM 34.2223 -81.0064 17° North  Level Estimated
09:53AM 34.2791 -80.9819 20° North  Level FlightAware Approximate
09:54AM 34.3358 -80.9574 20° North  Level FlightAware Approximate
09:55AM 34.3926 -80.9328 20° North  Level FlightAware Approximate
09:56AM 34.4494 -80.9082 20° North  Level FlightAware Approximate
09:56AM 34.4136 -80.8964 18° North 222 255 6,900  Level Atlanta Center
09:56AM 34.4342 -80.8881 18° North 222 255 6,900  Level Atlanta Center
09:57AM 34.5061 -80.8836 20° North  Level FlightAware Approximate
09:58AM 34.5629 -80.8589 20° North  Level FlightAware Approximate
09:58AM 34.5025 -80.8603 19° North 221 254 6,900  Level Atlanta Center
09:59AM 34.6201 -80.8353 18° North  Level FlightAware Approximate
09:59AM 34.5625 -80.8406 15° North 227 261 6,100  Level Atlanta Center
10:00AM 34.6774 -80.8123 18° North  Level FlightAware Approximate
10:00AM 34.6283 -80.8050 24° Northeast 238 274 5,300  Level Atlanta Center
10:01AM 34.7346 -80.7893 18° North  Level FlightAware Approximate
10:01AM 34.6706 -80.7453 49° Northeast 232 267 5,000  Level Atlanta Center
10:02AM 34.7083 -80.6808 54° Northeast 226 260 5,000  Level Atlanta Center
10:03AM 34.7572 -80.6358 37° Northeast 217 250 5,000  Level Atlanta Center
10:04AM 34.8131 -80.6208 12° North 206 237 5,000  Level Atlanta Center
10:05AM 34.8733 -80.6058 12° North 209 241 5,000  Level Atlanta Center
10:06AM 34.9292 -80.5883 14° North 208 239 5,000  Level Atlanta Center
10:07AM 34.9933 -80.5703 13° North 208 239 5,000  Level Atlanta Center
10:08AM 35.0428 -80.5556 14° North 209 241 5,000  Level Atlanta Center
10:09AM 35.1008 -80.5406 12° North 210 242 5,000  Level Atlanta Center
10:10AM 35.1672 -80.5200 14° North 211 243 5,000  Level Atlanta Center
10:11AM 35.2189 -80.5050 13° North 209 241 5,000  Level Atlanta Center
10:12AM 35.2703 -80.4850 18° North 209 241 5,000  Level Atlanta Center
10:13AM 35.3408 -80.4667 12° North 211 243 5,000  Level Atlanta Center
10:15AM 35.4236 -80.4461 North  Level FlightAware Approximate
10:22AM 35.8082 -80.3417 15° North  Level FlightAware Approximate
10:23AM 35.8626 -80.3236 15° North  Level FlightAware Approximate
10:24AM 35.9170 -80.3055 15° North  Level FlightAware Approximate
10:25AM 35.9708 -80.2850 18° North  Level FlightAware Approximate
10:26AM 36.0244 -80.2636 18° North  Level FlightAware Approximate
10:27AM 36.0780 -80.2421 18° North  Level FlightAware Approximate
10:28AM 36.1308 -80.2179 22° Northeast  Level FlightAware Approximate
10:29AM 36.1333 -80.2167 22° Northeast  Level FlightAware Approximate
10:30AM 36.1337 -80.2220 22° Northeast  Level Estimated
10:31AM 36.1333 -80.2167 22° Northeast  Level FlightAware Approximate
10:32AM 36.1337 -80.2220 22° Northeast  Level Estimated
10:33AM 36.1333 -80.2167 22° Northeast  Level FlightAware Approximate
10:34AM 36.1337 -80.2220 22° Northeast  Level Estimated
10:35AM 36.1333 -80.2167 22° Northeast  Level FlightAware Approximate
10:36AM 36.1337 -80.2220 22° Northeast  Level Estimated